Time;durP1;ratioP1;P1;durP2;ratioP2;P2;SDS_P1;SDS_P2;PMS_P1;PMS_P2;Temp;Humidity;BMP_temperature;BMP_pressure;BME280_temperature;BME280_humidity;BME280_pressure;Samples;Min_cycle;Max_cycle;Signal;HPM_P1;HPM_P2
2022/01/01 00:00:37;;;;;;;31.77;22.63;;;10.70;99.90;;;;;;5045622;28;20221;-71
2022/01/01 00:03:25;;;;;;;32.45;21.92;;;10.70;99.90;;;;;;5050645;28;20267;-70
2022/01/01 00:06:14;;;;;;;28.25;20.77;;;10.70;99.90;;;;;;5050948;28;20732;-71
2022/01/01 00:09:03;;;;;;;28.38;20.60;;;10.70;99.90;;;;;;5048662;28;20228;-72
2022/01/01 00:11:51;;;;;;;30.52;21.50;;;10.70;99.90;;;;;;5057678;28;20216;-71
2022/01/01 00:14:42;;;;;;;31.92;20.85;;;10.70;99.90;;;;;;5052155;28;20239;-72
2022/01/01 00:17:30;;;;;;;34.33;21.27;;;10.70;99.90;;;;;;5049734;28;20227;-72
2022/01/01 00:20:19;;;;;;;29.90;21.35;;;10.60;99.90;;;;;;5055652;28;20525;-71
2022/01/01 00:23:07;;;;;;;29.13;19.92;;;10.70;99.90;;;;;;5057010;28;20220;-71
2022/01/01 00:25:56;;;;;;;32.72;21.88;;;10.70;99.90;;;;;;5036683;28;20227;-71
2022/01/01 00:28:45;;;;;;;30.85;20.27;;;10.60;99.90;;;;;;5052589;28;20243;-70
2022/01/01 00:31:35;;;;;;;35.13;20.75;;;10.60;99.90;;;;;;5044642;28;20231;-69
2022/01/01 00:34:24;;;;;;;28.52;19.83;;;10.60;99.90;;;;;;5057135;28;20592;-71
2022/01/01 00:37:13;;;;;;;32.58;20.92;;;10.70;99.90;;;;;;5045012;28;20221;-71
2022/01/01 00:40:01;;;;;;;30.98;20.77;;;10.60;99.90;;;;;;5052199;28;20995;-70
2022/01/01 00:42:50;;;;;;;31.85;20.55;;;10.60;99.90;;;;;;5056242;28;20870;-70
2022/01/01 00:45:39;;;;;;;32.30;21.05;;;10.60;99.90;;;;;;5055852;28;20308;-71
2022/01/01 00:48:29;;;;;;;30.88;20.63;;;10.60;99.90;;;;;;5053640;28;20232;-71
2022/01/01 00:51:38;;;;;;;34.30;21.33;;;10.60;99.90;;;;;;5056473;28;20220;-70
2022/01/01 00:54:26;;;;;;;28.50;18.92;;;10.60;99.90;;;;;;5053268;28;20225;-71
2022/01/01 00:57:16;;;;;;;27.98;18.75;;;10.70;99.90;;;;;;5041079;28;20763;-70
2022/01/01 01:00:06;;;;;;;32.17;19.38;;;10.70;99.90;;;;;;5051926;28;20943;-71
2022/01/01 01:02:54;;;;;;;28.58;17.77;;;10.60;99.90;;;;;;5053212;28;20597;-68
2022/01/01 01:05:46;;;;;;;28.50;17.17;;;10.60;99.90;;;;;;5050932;28;21770;-69
2022/01/01 01:08:35;;;;;;;26.20;15.43;;;10.60;99.90;;;;;;5051859;28;20216;-69
2022/01/01 01:11:23;;;;;;;14.45;11.20;;;10.60;99.90;;;;;;5042393;28;20216;-68
2022/01/01 01:14:21;;;;;;;14.23;10.48;;;10.60;99.90;;;;;;5044923;28;20228;-71
2022/01/01 01:17:10;;;;;;;15.95;10.15;;;10.60;99.90;;;;;;5054883;28;20254;-69
2022/01/01 01:19:59;;;;;;;13.25;9.75;;;10.60;99.90;;;;;;5057530;28;20251;-70
2022/01/01 01:22:49;;;;;;;17.55;10.20;;;10.60;99.90;;;;;;5057550;28;20232;-69
2022/01/01 01:25:40;;;;;;;14.35;10.25;;;10.60;99.90;;;;;;5057605;28;20227;-68
2022/01/01 01:28:29;;;;;;;16.75;9.75;;;10.60;99.90;;;;;;5043964;28;20232;-68
2022/01/01 01:31:19;;;;;;;14.40;9.23;;;10.60;99.90;;;;;;5042096;28;20228;-69
2022/01/01 01:34:07;;;;;;;13.40;9.57;;;10.60;99.90;;;;;;5053394;28;20607;-69
2022/01/01 01:36:56;;;;;;;13.55;10.20;;;10.50;99.90;;;;;;5044947;28;20685;-69
2022/01/01 01:39:46;;;;;;;14.15;10.07;;;10.50;99.90;;;;;;5050390;28;20704;-68
2022/01/01 01:42:35;;;;;;;13.25;9.48;;;10.50;99.90;;;;;;5040054;28;20344;-69
2022/01/01 01:45:28;;;;;;;13.50;9.75;;;10.60;99.90;;;;;;5055057;28;20686;-70
2022/01/01 01:48:17;;;;;;;13.00;9.25;;;10.60;99.90;;;;;;5042963;28;20235;-69
2022/01/01 01:51:06;;;;;;;12.48;9.05;;;10.50;99.90;;;;;;5057111;28;20220;-68
2022/01/01 01:53:55;;;;;;;16.10;9.10;;;10.50;99.90;;;;;;5037679;28;20243;-69
2022/01/01 01:56:47;;;;;;;13.65;8.88;;;10.60;99.90;;;;;;5057694;28;20305;-70
2022/01/01 01:59:36;;;;;;;11.35;7.82;;;10.50;99.90;;;;;;5058999;28;20282;-71
2022/01/01 02:02:24;;;;;;;11.95;7.82;;;10.60;99.90;;;;;;5043024;28;20221;-69
2022/01/01 02:05:13;;;;;;;11.40;7.93;;;10.50;99.90;;;;;;5042022;28;20308;-69
2022/01/01 02:08:02;;;;;;;12.43;7.93;;;10.60;99.90;;;;;;5040125;28;20838;-70
2022/01/01 02:10:52;;;;;;;12.25;7.80;;;10.50;99.90;;;;;;5056005;28;20746;-68
2022/01/01 02:14:00;;;;;;;9.05;6.82;;;10.50;99.90;;;;;;5044618;28;20245;-68
2022/01/01 02:20:01;;;;;;;10.05;7.72;;;10.50;99.90;;;;;;5051462;28;20224;-68
2022/01/01 02:22:52;;;;;;;10.18;7.43;;;10.50;99.90;;;;;;5040105;28;20225;-70
2022/01/01 02:25:42;;;;;;;10.05;7.57;;;10.60;99.90;;;;;;5057432;28;20272;-70
2022/01/01 02:28:30;;;;;;;11.15;8.20;;;10.60;99.90;;;;;;5040128;28;20294;-70
2022/01/01 02:31:19;;;;;;;10.57;7.72;;;10.60;99.90;;;;;;5052705;28;20228;-70
2022/01/01 02:34:10;;;;;;;10.48;7.63;;;10.60;99.90;;;;;;5052267;28;20632;-70
2022/01/01 02:36:58;;;;;;;11.18;7.65;;;10.50;99.90;;;;;;5042326;28;20331;-71
2022/01/01 02:39:50;;;;;;;10.77;7.35;;;10.50;99.90;;;;;;5051586;28;20233;-71
2022/01/01 02:42:42;;;;;;;11.88;7.68;;;10.50;99.90;;;;;;5057748;28;20221;-70
2022/01/01 02:45:30;;;;;;;10.68;7.75;;;10.50;99.90;;;;;;5055100;28;20350;-70
2022/01/01 02:48:20;;;;;;;11.93;7.93;;;10.50;99.90;;;;;;5055623;28;20216;-68
2022/01/01 02:51:08;;;;;;;8.93;6.63;;;10.50;99.90;;;;;;5046205;28;20335;-65
2022/01/01 02:54:00;;;;;;;10.32;7.22;;;10.50;99.90;;;;;;5057097;28;20284;-70
2022/01/01 02:56:50;;;;;;;11.48;8.18;;;10.50;99.90;;;;;;5043285;28;20216;-70
2022/01/01 02:59:38;;;;;;;12.07;7.65;;;10.50;99.90;;;;;;5055284;28;20244;-70
2022/01/01 03:02:27;;;;;;;10.00;7.07;;;10.50;99.90;;;;;;5055334;28;20271;-68
2022/01/01 03:05:16;;;;;;;9.52;7.35;;;10.50;99.90;;;;;;5043891;28;20742;-70
2022/01/01 03:08:05;;;;;;;11.10;8.55;;;10.50;99.90;;;;;;5049807;28;20227;-68
2022/01/01 03:10:53;;;;;;;12.82;9.05;;;10.40;99.90;;;;;;5053854;28;20239;-69
2022/01/01 03:13:45;;;;;;;10.63;8.35;;;10.50;99.90;;;;;;5053883;28;20228;-69
2022/01/01 03:16:34;;;;;;;10.82;7.82;;;10.40;99.90;;;;;;5054187;28;20390;-69
2022/01/01 03:19:23;;;;;;;11.50;8.02;;;10.30;99.90;;;;;;5038763;28;20224;-70
2022/01/01 03:22:11;;;;;;;11.88;8.05;;;10.30;99.90;;;;;;5047079;28;20236;-70
2022/01/01 03:25:00;;;;;;;13.30;8.07;;;10.30;99.90;;;;;;5051616;28;20208;-71
2022/01/01 03:27:49;;;;;;;9.27;7.47;;;10.20;99.90;;;;;;5053687;28;20235;-68
2022/01/01 03:30:39;;;;;;;10.30;7.03;;;10.20;99.90;;;;;;5043226;28;20212;-71
2022/01/01 03:33:28;;;;;;;10.23;7.18;;;10.20;99.90;;;;;;5055405;28;20361;-71
2022/01/01 03:36:17;;;;;;;9.95;7.15;;;10.30;99.90;;;;;;5058499;28;20217;-71
2022/01/01 03:39:06;;;;;;;9.48;7.30;;;10.30;99.90;;;;;;5039280;28;20290;-71
2022/01/01 03:41:55;;;;;;;8.82;6.82;;;10.30;99.90;;;;;;5057436;28;20220;-71
2022/01/01 03:44:44;;;;;;;9.98;6.75;;;10.30;99.90;;;;;;5053550;28;20238;-73
2022/01/01 03:47:37;;;;;;;10.93;7.10;;;10.30;99.90;;;;;;5055008;28;20212;-70
2022/01/01 03:50:26;;;;;;;9.93;6.50;;;10.30;99.90;;;;;;5052919;28;20224;-70
2022/01/01 03:53:16;;;;;;;8.63;6.10;;;10.30;99.90;;;;;;5051240;28;20224;-71
2022/01/01 03:56:07;;;;;;;10.00;6.63;;;10.30;99.90;;;;;;5038439;28;20270;-69
2022/01/01 03:58:56;;;;;;;10.68;6.38;;;10.30;99.90;;;;;;5060166;28;20818;-70
2022/01/01 04:01:44;;;;;;;7.65;5.50;;;10.30;99.90;;;;;;5052915;28;20418;-70
2022/01/01 04:04:38;;;;;;;7.43;5.20;;;10.20;99.90;;;;;;5053120;28;20705;-69
2022/01/01 04:07:27;;;;;;;6.22;4.32;;;10.20;99.90;;;;;;5057578;28;20635;-70
2022/01/01 04:10:15;;;;;;;4.88;3.33;;;10.20;99.90;;;;;;5057022;28;20257;-70
2022/01/01 04:13:05;;;;;;;5.30;3.60;;;10.20;99.90;;;;;;5057251;28;20298;-69
2022/01/01 04:15:54;;;;;;;5.78;3.83;;;10.20;99.90;;;;;;5060145;28;20223;-67
2022/01/01 04:18:50;;;;;;;4.32;3.38;;;10.20;99.90;;;;;;5057581;28;20315;-70
2022/01/01 04:21:40;;;;;;;5.28;3.50;;;10.20;99.90;;;;;;5057946;28;20585;-67
2022/01/01 04:24:29;;;;;;;4.65;3.33;;;10.20;99.90;;;;;;5059664;28;20782;-70
2022/01/01 04:27:18;;;;;;;4.75;3.60;;;10.20;99.90;;;;;;5046804;28;20222;-68
2022/01/01 04:30:07;;;;;;;4.82;3.55;;;10.20;99.90;;;;;;5045338;28;20220;-67
2022/01/01 04:32:56;;;;;;;5.68;3.97;;;10.30;99.90;;;;;;5045715;28;20278;-68
2022/01/01 04:35:44;;;;;;;4.90;3.70;;;10.20;99.90;;;;;;5050854;28;20255;-70
2022/01/01 04:38:39;;;;;;;5.50;3.65;;;10.20;99.90;;;;;;5049932;28;20220;-68
2022/01/01 04:41:27;;;;;;;6.80;4.40;;;10.20;99.90;;;;;;5052186;28;20227;-66
2022/01/01 04:44:16;;;;;;;5.75;3.65;;;10.20;99.90;;;;;;5058575;28;20225;-70
2022/01/01 04:47:05;;;;;;;5.93;3.97;;;10.20;99.90;;;;;;5040349;28;20623;-69
2022/01/01 04:49:54;;;;;;;5.63;3.92;;;10.10;99.90;;;;;;5056932;28;20219;-69
2022/01/01 04:52:44;;;;;;;6.57;4.28;;;10.10;99.90;;;;;;5054711;28;20228;-70
2022/01/01 04:55:34;;;;;;;5.00;3.70;;;10.10;99.90;;;;;;5058555;28;20755;-71
2022/01/01 04:58:23;;;;;;;5.93;3.90;;;10.10;99.90;;;;;;5060968;28;20216;-71
2022/01/01 05:01:12;;;;;;;5.57;3.78;;;10.10;99.90;;;;;;5046271;28;20228;-69
2022/01/01 05:04:01;;;;;;;5.32;3.70;;;10.00;99.90;;;;;;5045886;28;20220;-68
2022/01/01 05:06:53;;;;;;;4.68;3.60;;;10.00;99.90;;;;;;5048975;28;20231;-70
2022/01/01 05:09:42;;;;;;;9.52;3.80;;;9.90;99.90;;;;;;5039969;28;20768;-69
2022/01/01 05:12:32;;;;;;;5.90;3.95;;;9.90;99.90;;;;;;5060730;28;20232;-70
2022/01/01 05:15:21;;;;;;;4.47;3.33;;;9.90;99.90;;;;;;5046849;28;20223;-69
2022/01/01 05:18:09;;;;;;;4.68;3.30;;;9.90;99.90;;;;;;5046442;28;20231;-70
2022/01/01 05:20:58;;;;;;;4.68;2.70;;;9.90;99.90;;;;;;5044864;28;20240;-69
2022/01/01 05:23:47;;;;;;;3.17;2.55;;;9.90;99.90;;;;;;5046490;28;20780;-70
2022/01/01 05:26:36;;;;;;;4.03;2.75;;;9.80;99.90;;;;;;5055440;28;20624;-69
2022/01/01 05:29:25;;;;;;;3.70;2.95;;;9.80;99.90;;;;;;5057504;28;20229;-70
2022/01/01 05:32:14;;;;;;;2.92;2.47;;;9.80;99.90;;;;;;5045213;28;20223;-69
2022/01/01 05:35:03;;;;;;;3.38;2.30;;;9.90;99.90;;;;;;5050652;28;20217;-67
2022/01/01 05:37:52;;;;;;;4.32;3.05;;;9.90;99.90;;;;;;5060411;28;20971;-69
2022/01/01 05:40:41;;;;;;;3.22;2.50;;;9.90;99.90;;;;;;5055781;28;20589;-69
2022/01/01 05:43:30;;;;;;;4.88;3.25;;;9.80;99.90;;;;;;5044149;28;20258;-68
2022/01/01 05:46:21;;;;;;;6.47;3.40;;;9.80;99.90;;;;;;5058114;28;20228;-68
2022/01/01 05:49:09;;;;;;;4.63;3.50;;;9.80;99.90;;;;;;5061301;28;20234;-68
2022/01/01 05:51:58;;;;;;;5.32;4.25;;;9.80;99.90;;;;;;5061685;28;20228;-69
2022/01/01 05:54:47;;;;;;;5.68;4.35;;;9.90;99.90;;;;;;5059868;28;20231;-69
2022/01/01 05:57:35;;;;;;;6.05;4.65;;;9.80;99.90;;;;;;5046775;28;20245;-70
2022/01/01 06:00:24;;;;;;;6.13;4.40;;;9.80;99.90;;;;;;5056843;28;20921;-70
2022/01/01 06:03:15;;;;;;;5.93;4.57;;;9.80;99.90;;;;;;5054287;28;20216;-68
2022/01/01 06:06:04;;;;;;;4.88;4.30;;;9.80;99.90;;;;;;5051752;28;20248;-68
2022/01/01 06:09:11;;;;;;;5.30;4.22;;;9.80;99.90;;;;;;5043881;28;20799;-65
2022/01/01 06:11:59;;;;;;;5.97;4.38;;;9.70;99.90;;;;;;5059546;28;20212;-68
2022/01/01 06:14:48;;;;;;;6.03;4.00;;;9.70;99.90;;;;;;5057363;28;20221;-68
2022/01/01 06:17:36;;;;;;;5.43;4.15;;;9.80;99.90;;;;;;5055498;28;20223;-67
2022/01/01 06:20:27;;;;;;;5.17;4.13;;;9.70;99.90;;;;;;5054987;28;20326;-67
2022/01/01 06:23:23;;;;;;;5.43;3.70;;;9.70;99.90;;;;;;5058081;28;20230;-67
2022/01/01 06:26:12;;;;;;;5.03;3.60;;;9.60;99.90;;;;;;5039622;28;20219;-68
2022/01/01 06:29:02;;;;;;;3.70;3.30;;;9.70;99.90;;;;;;5040407;28;20315;-68
2022/01/01 06:31:51;;;;;;;4.80;3.13;;;9.70;99.90;;;;;;5052534;28;20223;-65
2022/01/01 06:34:40;;;;;;;4.07;3.10;;;9.70;99.90;;;;;;5057132;28;20270;-67
2022/01/01 06:37:31;;;;;;;3.42;2.80;;;9.70;99.90;;;;;;5057893;28;20208;-68
2022/01/01 06:40:20;;;;;;;3.83;3.00;;;9.60;99.90;;;;;;5039977;28;20675;-67
2022/01/01 06:43:09;;;;;;;3.65;2.55;;;9.70;99.90;;;;;;5057920;28;20223;-67
2022/01/01 06:45:58;;;;;;;4.28;2.80;;;9.70;99.90;;;;;;5041502;28;20234;-69
2022/01/01 06:48:47;;;;;;;5.72;3.03;;;9.70;99.90;;;;;;5057341;28;20794;-70
2022/01/01 06:51:36;;;;;;;3.63;3.23;;;9.70;99.90;;;;;;5038049;28;20209;-70
2022/01/01 06:54:26;;;;;;;4.03;3.50;;;9.60;99.90;;;;;;5037918;28;20228;-71
2022/01/01 06:57:15;;;;;;;4.43;4.03;;;9.70;99.90;;;;;;5040496;28;20910;-70
2022/01/01 07:00:05;;;;;;;4.47;3.80;;;9.60;99.90;;;;;;5043804;28;20215;-68
2022/01/01 07:02:53;;;;;;;4.40;4.00;;;9.70;99.90;;;;;;5050821;28;20232;-68
2022/01/01 07:05:42;;;;;;;5.57;4.00;;;9.70;99.90;;;;;;5059080;28;20219;-70
2022/01/01 07:08:31;;;;;;;4.97;4.23;;;9.60;99.90;;;;;;5055321;28;20267;-71
2022/01/01 07:11:21;;;;;;;7.00;4.53;;;9.60;99.90;;;;;;5053627;28;20631;-70
2022/01/01 07:14:10;;;;;;;6.20;4.97;;;9.70;99.90;;;;;;5051256;28;20235;-71
2022/01/01 07:16:59;;;;;;;4.20;3.47;;;9.70;99.90;;;;;;5033497;28;20745;-70
2022/01/01 07:19:47;;;;;;;4.32;3.65;;;9.70;99.90;;;;;;5040975;28;20278;-69
2022/01/01 07:22:40;;;;;;;4.68;3.30;;;9.80;99.90;;;;;;5043907;28;20239;-68
2022/01/01 07:25:29;;;;;;;5.10;3.50;;;9.70;99.90;;;;;;5039387;28;20231;-72
2022/01/01 07:28:19;;;;;;;4.20;3.33;;;9.70;99.90;;;;;;5056409;28;20727;-71
2022/01/01 07:31:07;;;;;;;4.38;3.47;;;9.70;99.90;;;;;;5056387;28;20216;-70
2022/01/01 07:33:56;;;;;;;3.45;3.15;;;9.70;99.90;;;;;;5051724;28;20716;-70
2022/01/01 07:36:45;;;;;;;4.60;3.30;;;9.70;99.90;;;;;;5056193;28;20227;-71
2022/01/01 07:39:33;;;;;;;3.92;2.80;;;9.70;99.90;;;;;;5050247;28;20231;-71
2022/01/01 07:42:22;;;;;;;3.72;2.70;;;9.70;99.90;;;;;;5041004;28;20239;-69
2022/01/01 07:45:14;;;;;;;3.22;2.55;;;9.70;99.90;;;;;;5053813;28;20231;-70
2022/01/01 07:48:02;;;;;;;4.18;2.80;;;9.60;99.90;;;;;;5056080;28;20392;-69
2022/01/01 07:50:51;;;;;;;3.78;2.47;;;9.60;99.90;;;;;;5052134;28;20746;-70
2022/01/01 07:53:40;;;;;;;3.20;2.30;;;9.60;99.90;;;;;;5047081;28;20700;-70
2022/01/01 07:56:29;;;;;;;3.30;2.63;;;9.70;99.90;;;;;;5052648;28;20237;-69
2022/01/01 07:59:17;;;;;;;5.20;2.57;;;9.70;99.90;;;;;;5054990;28;20213;-68
2022/01/01 08:02:08;;;;;;;2.67;2.33;;;9.70;99.90;;;;;;5040212;28;20721;-70
2022/01/01 08:04:56;;;;;;;5.05;2.88;;;9.70;99.90;;;;;;5045917;28;20236;-69
2022/01/01 08:07:46;;;;;;;4.68;3.08;;;9.70;99.90;;;;;;5052738;28;20228;-69
2022/01/01 08:10:50;;;;;;;3.92;3.30;;;9.70;99.90;;;;;;5039373;28;20219;-70
2022/01/01 08:13:39;;;;;;;3.58;3.10;;;9.80;99.90;;;;;;5049669;28;20216;-70
2022/01/01 08:16:28;;;;;;;3.35;2.72;;;9.90;99.90;;;;;;5041325;28;20731;-71
2022/01/01 08:19:18;;;;;;;4.07;2.92;;;9.90;99.90;;;;;;5042827;28;20349;-70
2022/01/01 08:22:07;;;;;;;3.88;2.92;;;10.00;99.90;;;;;;5049619;28;20232;-68
2022/01/01 08:24:55;;;;;;;6.53;4.32;;;10.00;99.90;;;;;;5051541;28;20228;-68
2022/01/01 08:27:44;;;;;;;3.22;2.88;;;10.00;99.90;;;;;;5046446;28;20302;-68
2022/01/01 08:30:33;;;;;;;3.70;3.00;;;9.90;99.90;;;;;;5053259;28;20752;-69
2022/01/01 08:33:21;;;;;;;4.70;3.10;;;9.90;99.90;;;;;;5052983;28;20225;-69
2022/01/01 08:36:11;;;;;;;4.40;3.17;;;9.90;99.90;;;;;;5052509;28;20220;-69
2022/01/01 08:39:00;;;;;;;5.53;3.25;;;9.90;99.90;;;;;;5039628;28;20656;-68
2022/01/01 08:41:49;;;;;;;4.38;3.38;;;10.00;99.90;;;;;;5053894;28;20221;-68
2022/01/01 08:44:38;;;;;;;4.05;3.30;;;10.10;99.90;;;;;;5038088;28;20232;-69
2022/01/01 08:47:27;;;;;;;4.53;3.53;;;10.10;99.90;;;;;;5037613;28;20225;-70
2022/01/01 08:50:15;;;;;;;4.72;3.88;;;10.10;99.90;;;;;;5039728;28;20247;-68
2022/01/01 08:53:06;;;;;;;4.55;3.70;;;10.10;99.90;;;;;;5051968;28;21652;-66
2022/01/01 08:55:54;;;;;;;4.40;3.88;;;10.10;99.90;;;;;;5040440;28;20309;-68
2022/01/01 08:58:43;;;;;;;6.88;4.63;;;10.10;99.90;;;;;;5046829;28;20225;-70
2022/01/01 09:01:32;;;;;;;6.07;5.40;;;10.20;99.90;;;;;;5056350;28;20565;-68
2022/01/01 09:04:21;;;;;;;6.80;5.72;;;10.10;99.90;;;;;;5059422;28;20228;-69
2022/01/01 09:07:10;;;;;;;7.78;6.45;;;10.10;99.90;;;;;;5056055;28;20219;-69
2022/01/01 09:10:02;;;;;;;9.50;8.50;;;10.10;99.90;;;;;;5053938;28;20224;-70
2022/01/01 09:12:50;;;;;;;10.15;9.05;;;10.10;99.90;;;;;;5054536;28;20588;-68
2022/01/01 09:15:39;;;;;;;9.27;8.10;;;10.20;99.90;;;;;;5049581;28;20224;-68
2022/01/01 09:18:27;;;;;;;8.77;7.88;;;10.10;99.90;;;;;;5041031;28;20239;-69
2022/01/01 09:21:17;;;;;;;8.13;7.30;;;10.10;99.90;;;;;;5055968;28;20228;-68
2022/01/01 09:24:06;;;;;;;10.38;9.32;;;10.10;99.90;;;;;;5042178;28;20253;-70
2022/01/01 09:26:56;;;;;;;12.30;10.82;;;10.10;99.90;;;;;;5051852;28;20248;-68
2022/01/01 09:29:45;;;;;;;10.13;8.40;;;10.20;99.90;;;;;;5062921;28;20228;-66
2022/01/01 09:32:35;;;;;;;9.65;8.27;;;10.20;99.90;;;;;;5041132;28;20216;-67
2022/01/01 09:35:24;;;;;;;9.02;8.05;;;10.10;99.90;;;;;;5058526;28;20254;-66
2022/01/01 09:38:12;;;;;;;9.57;8.68;;;10.10;99.90;;;;;;5046639;28;20228;-69
2022/01/01 09:41:03;;;;;;;11.98;8.50;;;10.10;99.90;;;;;;5044096;28;20224;-68
2022/01/01 09:43:54;;;;;;;9.65;8.75;;;10.30;99.90;;;;;;5059900;28;20235;-69
2022/01/01 09:46:45;;;;;;;9.15;8.25;;;10.30;99.90;;;;;;5054296;28;20219;-69
2022/01/01 09:49:34;;;;;;;9.57;8.13;;;10.40;99.90;;;;;;5055708;28;20216;-69
2022/01/01 09:52:23;;;;;;;11.88;8.38;;;10.30;99.90;;;;;;5044078;28;21050;-67
2022/01/01 09:55:12;;;;;;;8.98;8.07;;;10.30;99.90;;;;;;5054025;28;20220;-69
2022/01/01 09:58:01;;;;;;;9.02;6.88;;;10.30;99.90;;;;;;5042252;28;20224;-68
2022/01/01 10:00:52;;;;;;;8.90;7.15;;;10.40;99.90;;;;;;5039337;28;20250;-68
2022/01/01 10:03:43;;;;;;;8.35;7.07;;;10.40;99.90;;;;;;5053950;28;20221;-68
2022/01/01 10:06:33;;;;;;;8.52;7.28;;;10.40;99.90;;;;;;5041541;28;20224;-66
2022/01/01 10:09:31;;;;;;;9.27;7.78;;;10.40;99.90;;;;;;5054488;28;20226;-67
2022/01/01 10:12:20;;;;;;;8.85;7.20;;;10.40;99.90;;;;;;5046545;28;20220;-67
2022/01/01 10:15:11;;;;;;;8.85;7.88;;;10.40;99.90;;;;;;5057754;28;20220;-68
2022/01/01 10:18:07;;;;;;;9.13;7.25;;;10.40;99.90;;;;;;5057147;28;20644;-66
2022/01/01 10:20:57;;;;;;;8.38;7.38;;;10.60;99.90;;;;;;5052865;28;20263;-68
2022/01/01 10:23:49;;;;;;;7.95;7.18;;;10.50;99.90;;;;;;5042702;28;20248;-68
2022/01/01 10:29:43;;;;;;;9.40;7.47;;;10.60;99.90;;;;;;5050330;28;20224;-65
2022/01/01 10:32:32;;;;;;;9.38;8.30;;;10.50;99.90;;;;;;5041754;28;20224;-69
2022/01/01 10:35:23;;;;;;;9.65;7.80;;;10.50;99.90;;;;;;5053578;28;20227;-68
2022/01/01 10:38:13;;;;;;;10.25;8.48;;;10.60;99.90;;;;;;5054410;28;20224;-68
2022/01/01 10:41:13;;;;;;;9.18;8.20;;;10.60;99.90;;;;;;5037234;28;20220;-69
2022/01/01 10:44:07;;;;;;;8.40;7.47;;;10.70;99.90;;;;;;5048092;28;20220;-69
2022/01/01 10:46:57;;;;;;;9.43;7.75;;;10.60;99.90;;;;;;5054202;28;20239;-66
2022/01/01 10:50:13;;;;;;;9.60;8.02;;;10.60;99.90;;;;;;5053603;28;20232;-68
2022/01/01 10:53:12;;;;;;;11.23;8.02;;;10.60;99.90;;;;;;5056136;28;20223;-65
2022/01/01 10:56:03;;;;;;;8.55;7.50;;;10.70;99.90;;;;;;5052989;28;20217;-66
2022/01/01 10:58:59;;;;;;;9.90;8.65;;;10.70;99.90;;;;;;5052103;28;20258;-66
2022/01/01 11:01:57;;;;;;;9.65;8.65;;;10.70;99.90;;;;;;5054710;28;20243;-68
2022/01/01 11:04:46;;;;;;;7.45;6.75;;;10.60;99.90;;;;;;5035160;28;20289;-67
2022/01/01 11:07:35;;;;;;;7.82;6.88;;;10.60;99.90;;;;;;5036929;28;20278;-68
2022/01/01 11:10:26;;;;;;;7.65;6.93;;;10.60;99.90;;;;;;5040856;28;20308;-68
2022/01/01 11:13:15;;;;;;;6.25;5.70;;;10.60;99.90;;;;;;5054212;28;20558;-67
2022/01/01 11:16:05;;;;;;;6.93;6.07;;;10.50;99.90;;;;;;5047928;28;20240;-67
2022/01/01 11:18:55;;;;;;;5.88;5.28;;;10.50;99.90;;;;;;5055200;28;20236;-67
2022/01/01 11:21:43;;;;;;;5.82;5.20;;;10.60;99.90;;;;;;5056374;28;20220;-67
2022/01/01 11:24:33;;;;;;;5.82;5.30;;;10.60;99.90;;;;;;5053262;28;20597;-66
2022/01/01 11:27:28;;;;;;;7.05;6.10;;;10.60;99.90;;;;;;5040945;28;20219;-67
2022/01/01 11:30:20;;;;;;;6.00;5.40;;;10.50;99.90;;;;;;5038511;28;20327;-66
2022/01/01 11:33:12;;;;;;;5.75;5.15;;;10.60;99.90;;;;;;5050167;28;20223;-65
2022/01/01 11:36:02;;;;;;;4.43;4.00;;;10.60;99.90;;;;;;5042977;28;20752;-66
2022/01/01 11:38:53;;;;;;;3.72;3.42;;;10.60;99.90;;;;;;5037392;28;20227;-64
2022/01/01 11:41:43;;;;;;;5.47;3.53;;;10.50;99.90;;;;;;5055896;28;20232;-69
2022/01/01 11:44:34;;;;;;;4.00;3.30;;;10.50;99.90;;;;;;5041573;28;20538;-68
2022/01/01 11:47:25;;;;;;;4.38;3.08;;;10.50;99.90;;;;;;5044131;28;20224;-66
2022/01/01 11:50:43;;;;;;;3.25;2.75;;;10.50;99.90;;;;;;5054762;28;21932;-68
2022/01/01 11:53:33;;;;;;;3.75;2.85;;;10.50;99.90;;;;;;5055126;28;20546;-69
2022/01/01 11:56:22;;;;;;;3.67;2.70;;;10.50;99.90;;;;;;5040765;28;20212;-67
2022/01/01 11:59:18;;;;;;;4.03;2.75;;;10.50;99.90;;;;;;5055705;28;20972;-67
2022/01/01 12:02:33;;;;;;;3.65;2.67;;;10.50;99.90;;;;;;5041557;28;20212;-68
2022/01/01 12:05:31;;;;;;;2.58;1.98;;;10.40;99.90;;;;;;5033666;28;20228;-68
2022/01/01 12:08:42;;;;;;;3.38;2.13;;;10.40;99.90;;;;;;5054581;28;20227;-69
2022/01/01 12:11:32;;;;;;;3.53;1.98;;;10.40;99.90;;;;;;5053880;28;20348;-68
2022/01/01 12:14:28;;;;;;;2.65;2.15;;;10.40;99.90;;;;;;5054524;28;20308;-68
2022/01/01 12:17:19;;;;;;;2.10;1.83;;;10.50;99.90;;;;;;5054055;28;20224;-69
2022/01/01 12:20:16;;;;;;;2.88;1.80;;;10.50;99.90;;;;;;5043120;28;20222;-68
2022/01/01 12:23:07;;;;;;;2.85;1.52;;;10.50;99.90;;;;;;5050049;28;20220;-68
2022/01/01 12:25:56;;;;;;;2.08;1.70;;;10.60;99.90;;;;;;5050963;28;20220;-68
2022/01/01 12:28:45;;;;;;;2.67;1.83;;;10.60;99.90;;;;;;5045699;28;20332;-69
2022/01/01 12:31:34;;;;;;;4.25;1.70;;;10.60;99.90;;;;;;5042892;28;20225;-69
2022/01/01 12:34:24;;;;;;;2.75;1.67;;;10.60;99.90;;;;;;5056896;28;20237;-66
2022/01/01 12:37:14;;;;;;;3.40;1.90;;;10.50;99.90;;;;;;5056426;28;20213;-69
2022/01/01 12:40:05;;;;;;;4.32;1.80;;;10.50;99.90;;;;;;5056583;28;20223;-75
2022/01/01 12:42:54;;;;;;;2.78;1.95;;;10.60;99.90;;;;;;5054192;28;20372;-67
2022/01/01 12:45:50;;;;;;;3.55;1.88;;;10.60;99.90;;;;;;5047281;28;20331;-69
2022/01/01 12:48:40;;;;;;;3.15;1.80;;;10.60;99.90;;;;;;5042148;28;20220;-67
2022/01/01 12:51:36;;;;;;;4.03;2.30;;;10.50;99.90;;;;;;5040903;28;20292;-69
2022/01/01 12:54:26;;;;;;;3.20;2.20;;;10.40;99.90;;;;;;5054961;28;20243;-69
2022/01/01 12:57:18;;;;;;;3.70;2.40;;;10.30;99.90;;;;;;5042299;28;20693;-67
2022/01/01 13:00:23;;;;;;;4.10;2.17;;;10.20;99.90;;;;;;5052029;28;20990;-68
2022/01/01 13:03:16;;;;;;;3.30;2.45;;;10.10;99.90;;;;;;5044993;28;20223;-67
2022/01/01 13:06:05;;;;;;;4.57;3.40;;;9.90;99.90;;;;;;5043309;28;20236;-68
2022/01/01 13:08:56;;;;;;;4.13;3.00;;;10.00;99.90;;;;;;5056491;28;20238;-69
2022/01/01 13:11:47;;;;;;;4.55;2.33;;;10.10;99.90;;;;;;5054992;28;20227;-67
2022/01/01 13:14:37;;;;;;;4.10;2.10;;;10.20;99.90;;;;;;5054155;28;20224;-67
2022/01/01 13:17:26;;;;;;;4.75;2.67;;;10.20;99.90;;;;;;5054687;28;20222;-67
2022/01/01 13:20:14;;;;;;;3.67;2.60;;;10.20;99.90;;;;;;5040484;28;20232;-69
2022/01/01 13:23:06;;;;;;;4.50;2.38;;;10.20;99.90;;;;;;5056236;28;20227;-68
2022/01/01 13:25:56;;;;;;;4.32;2.40;;;10.20;99.90;;;;;;5053694;28;20794;-68
2022/01/01 13:28:46;;;;;;;3.63;1.80;;;10.20;99.90;;;;;;5038794;28;20311;-67
2022/01/01 13:31:36;;;;;;;3.78;1.80;;;10.10;99.90;;;;;;5053183;28;20216;-68
2022/01/01 13:34:25;;;;;;;3.67;1.83;;;9.90;99.90;;;;;;5043560;28;20829;-69
2022/01/01 13:37:20;;;;;;;3.97;1.90;;;9.90;99.90;;;;;;5055493;28;20220;-67
2022/01/01 13:40:10;;;;;;;2.38;1.70;;;9.80;99.90;;;;;;5042000;28;20227;-67
2022/01/01 13:43:11;;;;;;;3.78;1.80;;;9.80;99.90;;;;;;5055656;28;20231;-66
2022/01/01 13:46:07;;;;;;;6.53;2.20;;;9.80;99.90;;;;;;5056432;28;20255;-66
2022/01/01 13:48:59;;;;;;;5.40;2.05;;;9.90;99.90;;;;;;5037588;28;20233;-67
2022/01/01 13:51:55;;;;;;;5.97;2.03;;;9.80;99.90;;;;;;5057111;28;20223;-69
2022/01/01 13:54:44;;;;;;;5.70;2.85;;;9.80;99.90;;;;;;5055434;28;20217;-69
2022/01/01 13:57:50;;;;;;;8.45;4.10;;;9.80;99.90;;;;;;5058163;28;20220;-67
2022/01/01 14:00:41;;;;;;;3.60;2.35;;;9.70;99.90;;;;;;5048723;28;20224;-68
2022/01/01 14:03:29;;;;;;;4.22;2.10;;;9.80;99.90;;;;;;5043710;28;20217;-68
2022/01/01 14:06:23;;;;;;;5.00;1.60;;;9.80;99.90;;;;;;5045963;28;20252;-67
2022/01/01 14:09:12;;;;;;;4.32;2.03;;;9.80;99.90;;;;;;5054757;28;20224;-69
2022/01/01 14:12:01;;;;;;;3.85;2.03;;;9.80;99.90;;;;;;5046320;28;20224;-66
2022/01/01 14:14:50;;;;;;;4.75;2.42;;;9.80;99.90;;;;;;5055267;28;20232;-69
2022/01/01 14:18:04;;;;;;;4.80;1.98;;;9.70;99.90;;;;;;5055858;28;20225;-68
2022/01/01 14:20:54;;;;;;;5.38;2.00;;;9.70;99.90;;;;;;5052235;28;20651;-69
2022/01/01 14:23:44;;;;;;;4.78;2.08;;;9.70;99.90;;;;;;5053936;28;20666;-68
2022/01/01 14:26:41;;;;;;;4.70;2.30;;;9.60;99.90;;;;;;5056653;28;20232;-69
2022/01/01 14:29:30;;;;;;;5.40;2.25;;;9.60;99.90;;;;;;5043199;28;20231;-69
2022/01/01 14:32:20;;;;;;;5.90;2.42;;;9.50;99.90;;;;;;5055810;28;20235;-67
2022/01/01 14:35:10;;;;;;;4.28;2.47;;;9.60;99.90;;;;;;5052376;28;20270;-69
2022/01/01 14:38:03;;;;;;;5.45;2.50;;;9.60;99.90;;;;;;5053699;28;20724;-70
2022/01/01 14:40:52;;;;;;;4.45;2.25;;;9.60;99.90;;;;;;5050359;28;20236;-69
2022/01/01 14:43:41;;;;;;;5.13;2.77;;;9.60;99.90;;;;;;5040475;28;20267;-69
2022/01/01 14:46:33;;;;;;;5.75;2.92;;;9.60;99.90;;;;;;5054026;28;20811;-69
2022/01/01 14:49:32;;;;;;;5.70;2.92;;;9.60;99.90;;;;;;5037583;28;20235;-67
2022/01/01 14:52:32;;;;;;;4.87;2.70;;;9.60;99.90;;;;;;5056430;28;20235;-70